Time;durP1;ratioP1;P1;durP2;ratioP2;P2;SDS_P1;SDS_P2;PMS_P1;PMS_P2;Temp;Humidity;BMP_temperature;BMP_pressure;BME280_temperature;BME280_humidity;BME280_pressure;Samples;Min_cycle;Max_cycle;Signal;HPM_P1;HPM_P2
2022/02/23 00:01:13;;;;;;;12.27;2.55;;;3.20;99.90;;;;;;5015737;28;19908;-80
2022/02/23 00:03:39;;;;;;;;;;;3.30;99.80;;;;;;5015319;28;20010;-80
2022/02/23 00:06:05;;;;;;;7.88;1.70;;;3.30;99.40;;;;;;5016704;28;19913;-80
2022/02/23 00:08:31;;;;;;;8.13;2.38;;;3.30;99.10;;;;;;5016400;28;20045;-80
2022/02/23 00:10:57;;;;;;;;;;;3.30;99.00;;;;;;5032000;28;20011;-80
2022/02/23 00:13:23;;;;;;;12.13;1.80;;;3.30;99.00;;;;;;5015633;28;19949;-80
2022/02/23 00:15:49;;;;;;;8.68;1.92;;;3.30;99.20;;;;;;5014728;28;20058;-79
2022/02/23 00:18:15;;;;;;;10.90;2.90;;;3.20;99.20;;;;;;5016818;28;20022;-81
2022/02/23 00:20:41;;;;;;;;;;;3.20;99.50;;;;;;5016915;28;20511;-80
2022/02/23 00:23:07;;;;;;;14.68;2.00;;;3.10;99.90;;;;;;5016473;28;19893;-80
2022/02/23 00:25:33;;;;;;;;;;;3.00;99.90;;;;;;5015735;28;20102;-80
2022/02/23 00:27:59;;;;;;;10.13;2.08;;;3.00;99.90;;;;;;5015393;28;19910;-80
2022/02/23 00:30:25;;;;;;;;;;;3.00;99.90;;;;;;5016368;28;20430;-80
2022/02/23 00:32:51;;;;;;;16.90;2.75;;;3.00;99.90;;;;;;5015047;28;19897;-80
2022/02/23 00:35:16;;;;;;;;;;;2.90;99.90;;;;;;5031901;28;20065;-80
2022/02/23 00:37:42;;;;;;;13.35;2.28;;;2.90;99.90;;;;;;5017934;28;19905;-80
2022/02/23 00:40:08;;;;;;;;;;;2.90;99.90;;;;;;5019385;28;20050;-81
2022/02/23 00:42:34;;;;;;;13.65;4.22;;;2.90;99.90;;;;;;5020185;28;19890;-80
2022/02/23 00:50:01;;;;;;;10.77;1.90;;;2.80;99.90;;;;;;5308846;23;19912;-80
2022/02/23 00:52:27;;;;;;;;;;;2.80;99.90;;;;;;5017752;28;20066;-79
2022/02/23 00:54:53;;;;;;;14.77;3.80;;;2.80;99.90;;;;;;5018709;28;19977;-80
2022/02/23 00:57:19;;;;;;;6.95;1.83;;;2.80;99.90;;;;;;5018992;28;20091;-80
2022/02/23 00:59:45;;;;;;;;;;;2.80;99.90;;;;;;5019600;28;20053;-79
2022/02/23 01:02:11;;;;;;;13.23;3.05;;;2.70;99.90;;;;;;5018566;28;19910;-80
2022/02/23 01:04:37;;;;;;;12.82;3.67;;;2.70;99.90;;;;;;5019121;28;20033;-80
2022/02/23 01:07:04;;;;;;;14.50;4.95;;;2.60;99.90;;;;;;5018131;28;20426;-79
2022/02/23 01:09:31;;;;;;;18.75;5.53;;;2.50;99.90;;;;;;5019014;28;20010;-79
2022/02/23 01:11:57;;;;;;;22.30;5.90;;;2.40;99.90;;;;;;5018598;28;20034;-79
2022/02/23 01:14:23;;;;;;;19.08;4.65;;;2.40;99.90;;;;;;5018632;28;20026;-80
2022/02/23 01:16:49;;;;;;;15.63;3.08;;;2.30;99.90;;;;;;5019343;28;20014;-80
2022/02/23 01:19:15;;;;;;;;;;;2.30;99.90;;;;;;5019471;28;20018;-79
2022/02/23 01:21:41;;;;;;;16.58;3.33;;;2.30;99.90;;;;;;5018749;28;19894;-79
2022/02/23 01:24:07;;;;;;;;;;;2.20;99.90;;;;;;5018337;28;20042;-79
2022/02/23 01:26:33;;;;;;;12.05;2.95;;;2.30;99.90;;;;;;5018166;28;19952;-79
2022/02/23 01:28:58;;;;;;;23.92;5.57;;;2.30;99.90;;;;;;5019246;28;20062;-79
2022/02/23 01:31:25;;;;;;;15.35;4.07;;;2.40;99.90;;;;;;5017897;28;20011;-79
2022/02/23 01:33:51;;;;;;;11.65;3.58;;;2.40;99.90;;;;;;5018711;28;20056;-80
2022/02/23 01:36:17;;;;;;;;;;;2.50;99.90;;;;;;5018594;28;20022;-80
2022/02/23 01:38:43;;;;;;;23.40;2.95;;;2.60;99.90;;;;;;5018435;28;19893;-79
2022/02/23 01:41:09;;;;;;;12.00;2.33;;;2.60;99.90;;;;;;5017890;28;20002;-80
2022/02/23 01:43:35;;;;;;;;;;;2.60;99.90;;;;;;5017839;28;20022;-80
2022/02/23 01:46:01;;;;;;;18.10;4.10;;;2.70;99.90;;;;;;5018993;28;19910;-80
2022/02/23 01:48:27;;;;;;;;;;;2.70;99.90;;;;;;5018657;28;20075;-80
2022/02/23 01:50:52;;;;;;;18.80;3.30;;;2.70;99.90;;;;;;5018392;28;19901;-80
2022/02/23 01:53:19;;;;;;;14.40;3.78;;;2.80;99.90;;;;;;5018299;28;20031;-79
2022/02/23 01:55:45;;;;;;;14.00;4.05;;;2.80;99.90;;;;;;5017602;28;20067;-79
2022/02/23 01:58:11;;;;;;;;;;;2.80;99.90;;;;;;5018009;28;20035;-80
2022/02/23 02:00:37;;;;;;;12.82;2.45;;;2.80;99.90;;;;;;5014493;28;19917;-78
2022/02/23 02:03:03;;;;;;;16.30;2.88;;;2.80;99.90;;;;;;5026502;28;20030;-77
2022/02/23 02:05:29;;;;;;;15.38;3.08;;;2.80;99.90;;;;;;5010489;28;20038;-79
2022/02/23 02:07:55;;;;;;;;;;;2.70;99.90;;;;;;5012947;28;20121;-78
2022/02/23 02:10:20;;;;;;;13.30;2.70;;;2.60;99.90;;;;;;5013466;28;19956;-77
2022/02/23 02:12:46;;;;;;;13.90;3.40;;;2.60;99.90;;;;;;5011729;28;20030;-78
2022/02/23 02:15:12;;;;;;;12.07;2.92;;;2.50;99.90;;;;;;5012300;28;20503;-78
2022/02/23 02:17:41;;;;;;;16.40;2.63;;;2.50;99.90;;;;;;5013075;28;20090;-78
2022/02/23 02:20:08;;;;;;;12.82;2.70;;;2.40;99.90;;;;;;5012794;28;20030;-78
2022/02/23 02:22:34;;;;;;;13.95;3.65;;;2.40;99.90;;;;;;5029185;28;20045;-79
2022/02/23 02:25:00;;;;;;;;;;;2.30;99.90;;;;;;5013171;28;20061;-78
2022/02/23 02:27:26;;;;;;;15.57;3.00;;;2.40;99.90;;;;;;5012399;28;19912;-78
2022/02/23 02:29:52;;;;;;;13.40;2.42;;;2.30;99.90;;;;;;5012135;28;20065;-78
2022/02/23 02:32:18;;;;;;;;;;;2.20;99.90;;;;;;5013570;28;20031;-79
2022/02/23 02:34:46;;;;;;;17.25;3.65;;;2.20;99.90;;;;;;5013034;28;19906;-78
2022/02/23 02:37:15;;;;;;;16.65;3.55;;;2.20;99.90;;;;;;5013132;28;20070;-78
2022/02/23 02:39:41;;;;;;;13.75;3.55;;;2.10;99.90;;;;;;5013351;28;20022;-78
2022/02/23 02:42:07;;;;;;;32.63;7.32;;;2.10;99.90;;;;;;5013141;28;20050;-79
2022/02/23 02:44:33;;;;;;;;;;;2.10;99.90;;;;;;5013303;28;20497;-79
2022/02/23 02:46:59;;;;;;;42.13;12.90;;;2.00;99.90;;;;;;5012610;28;19905;-79
2022/02/23 02:49:25;;;;;;;47.00;16.48;;;2.00;99.90;;;;;;5011892;28;20030;-78
2022/02/23 02:51:51;;;;;;;;;;;2.00;99.90;;;;;;5013696;28;20045;-79
2022/02/23 02:54:17;;;;;;;27.23;5.72;;;2.00;99.90;;;;;;5010140;28;19914;-78
2022/02/23 02:56:43;;;;;;;;;;;2.10;99.90;;;;;;5009324;28;20022;-79
2022/02/23 02:59:09;;;;;;;22.38;5.95;;;2.10;99.90;;;;;;5010228;28;19906;-79
2022/02/23 03:01:35;;;;;;;;;;;2.10;99.90;;;;;;5013060;28;20589;-78
2022/02/23 03:04:02;;;;;;;18.33;3.97;;;2.10;99.90;;;;;;5010857;28;19921;-78
2022/02/23 03:06:27;;;;;;;16.20;3.63;;;2.10;99.90;;;;;;5012500;28;20030;-78
2022/02/23 03:08:54;;;;;;;;;;;2.20;99.90;;;;;;5012591;28;20026;-78
2022/02/23 03:11:20;;;;;;;14.60;3.20;;;2.20;99.90;;;;;;5011543;28;19906;-79
2022/02/23 03:13:46;;;;;;;21.30;6.97;;;2.30;99.90;;;;;;5012210;28;20034;-79
2022/02/23 03:16:14;;;;;;;15.57;3.67;;;2.30;99.90;;;;;;5010780;28;20030;-78
2022/02/23 03:18:41;;;;;;;14.60;3.33;;;2.20;99.90;;;;;;5011289;28;20029;-78
2022/02/23 03:21:08;;;;;;;17.13;3.78;;;2.20;99.90;;;;;;5011352;28;20034;-79
2022/02/23 03:23:35;;;;;;;12.68;3.28;;;2.20;99.90;;;;;;5012590;28;20077;-79
2022/02/23 03:26:00;;;;;;;17.05;3.63;;;2.20;99.90;;;;;;5012154;28;20034;-79
2022/02/23 03:28:26;;;;;;;;;;;2.20;99.90;;;;;;5011737;28;20057;-77
2022/02/23 03:30:52;;;;;;;13.50;3.40;;;2.20;99.90;;;;;;5011790;28;19906;-78
2022/02/23 03:33:18;;;;;;;10.15;2.55;;;2.20;99.90;;;;;;5012098;28;20026;-78
2022/02/23 03:35:45;;;;;;;;;;;2.20;99.90;;;;;;5011059;28;20050;-78
2022/02/23 03:38:11;;;;;;;19.67;3.60;;;2.20;99.90;;;;;;5012305;28;19936;-79
2022/02/23 03:40:38;;;;;;;12.73;2.58;;;2.20;99.90;;;;;;5011073;28;20050;-78
2022/02/23 03:43:05;;;;;;;16.52;3.45;;;2.20;99.90;;;;;;5010374;28;20030;-78
2022/02/23 03:45:32;;;;;;;16.27;3.65;;;2.30;99.90;;;;;;5011850;28;20038;-78
2022/02/23 03:47:58;;;;;;;11.80;3.17;;;2.20;99.90;;;;;;5010422;28;20031;-78
2022/02/23 03:50:24;;;;;;;;;;;2.30;99.90;;;;;;5011485;28;20046;-79
2022/02/23 03:52:50;;;;;;;14.02;3.63;;;2.30;99.90;;;;;;5011260;28;19906;-78
2022/02/23 03:55:16;;;;;;;17.92;2.58;;;2.20;99.90;;;;;;5010482;28;20046;-78
2022/02/23 03:57:42;;;;;;;;;;;2.20;99.90;;;;;;5010524;28;20030;-78
2022/02/23 04:00:11;;;;;;;12.80;3.97;;;2.30;99.90;;;;;;5009638;28;20417;-78
2022/02/23 04:02:37;;;;;;;22.92;6.53;;;2.20;99.90;;;;;;5009457;28;20034;-78
2022/02/23 04:05:03;;;;;;;;;;;2.20;99.90;;;;;;5010789;28;20030;-78
2022/02/23 04:07:29;;;;;;;16.95;5.18;;;2.20;99.90;;;;;;5010319;28;20374;-77
2022/02/23 04:09:54;;;;;;;;;;;2.10;99.90;;;;;;5010541;28;20117;-78
2022/02/23 04:12:21;;;;;;;22.98;3.88;;;2.10;99.90;;;;;;5010744;28;19981;-78
2022/02/23 04:14:47;;;;;;;12.57;2.90;;;2.10;99.90;;;;;;5010191;28;20030;-78
2022/02/23 04:17:12;;;;;;;;;;;2.10;99.90;;;;;;5011479;28;20037;-79
2022/02/23 04:19:38;;;;;;;17.15;3.67;;;2.10;99.90;;;;;;5009963;28;19934;-79
2022/02/23 04:22:05;;;;;;;10.10;2.97;;;2.10;99.90;;;;;;5009136;28;20028;-78
2022/02/23 04:24:32;;;;;;;14.90;4.40;;;2.10;99.90;;;;;;5010989;28;20081;-78
2022/02/23 04:26:59;;;;;;;21.02;3.78;;;2.20;99.90;;;;;;5011612;28;20054;-78
2022/02/23 04:29:24;;;;;;;13.70;3.53;;;2.20;99.90;;;;;;5010807;28;20093;-78
2022/02/23 04:31:50;;;;;;;;;;;2.20;99.90;;;;;;5009396;28;20030;-78
2022/02/23 04:34:16;;;;;;;12.00;2.67;;;2.30;99.90;;;;;;5010976;28;19906;-79
2022/02/23 04:36:41;;;;;;;;;;;2.30;99.90;;;;;;5009378;28;20034;-78
2022/02/23 04:39:08;;;;;;;14.93;2.75;;;2.30;99.90;;;;;;5009632;28;19905;-80
2022/02/23 04:41:35;;;;;;;12.50;2.50;;;2.40;99.90;;;;;;5010081;28;20121;-79
2022/02/23 04:44:00;;;;;;;14.77;3.50;;;2.40;99.90;;;;;;5009455;28;20034;-79
2022/02/23 04:46:26;;;;;;;;;;;2.50;99.90;;;;;;5010727;28;20033;-77
2022/02/23 04:48:52;;;;;;;10.20;3.90;;;2.50;99.90;;;;;;5009306;28;19906;-79
2022/02/23 04:51:19;;;;;;;;;;;2.60;99.90;;;;;;5010793;28;20106;-78
2022/02/23 04:53:46;;;;;;;15.32;4.45;;;2.60;99.90;;;;;;5010031;28;19917;-77
2022/02/23 04:56:12;;;;;;;11.80;3.95;;;2.60;99.90;;;;;;5010899;28;20049;-77
2022/02/23 04:58:38;;;;;;;;;;;2.60;99.90;;;;;;5011884;28;20026;-79
2022/02/23 05:01:05;;;;;;;23.75;5.85;;;2.70;99.90;;;;;;5009938;28;19973;-78
2022/02/23 05:03:31;;;;;;;10.30;3.42;;;2.70;99.90;;;;;;5009058;28;20022;-78
2022/02/23 05:05:59;;;;;;;16.20;4.93;;;2.70;99.90;;;;;;5010389;28;20049;-78
2022/02/23 05:08:26;;;;;;;17.63;3.70;;;2.70;99.90;;;;;;5010488;28;20049;-78
2022/02/23 05:10:52;;;;;;;17.00;3.55;;;2.80;99.90;;;;;;5010469;28;20031;-78
2022/02/23 05:13:18;;;;;;;12.48;4.40;;;2.80;99.90;;;;;;5009221;28;20034;-79
2022/02/23 05:15:44;;;;;;;;;;;2.90;99.90;;;;;;5010135;28;20021;-79
2022/02/23 05:18:10;;;;;;;20.90;5.68;;;2.80;99.90;;;;;;5011704;28;19910;-78
2022/02/23 05:20:36;;;;;;;;;;;2.80;99.90;;;;;;5010570;28;20027;-77
2022/02/23 05:23:05;;;;;;;16.13;3.80;;;2.80;99.90;;;;;;5013944;28;19982;-78
2022/02/23 05:25:31;;;;;;;19.63;3.55;;;2.80;99.90;;;;;;5014039;28;20034;-77
2022/02/23 05:27:57;;;;;;;;;;;2.80;99.90;;;;;;5013319;28;20045;-79
2022/02/23 05:30:23;;;;;;;14.40;3.15;;;2.90;99.90;;;;;;5011101;28;19905;-80
2022/02/23 05:32:49;;;;;;;19.02;4.00;;;2.80;99.90;;;;;;5010261;28;20034;-80
2022/02/23 05:35:15;;;;;;;;;;;2.90;99.90;;;;;;5007541;28;20479;-78
2022/02/23 05:37:40;;;;;;;16.40;6.45;;;2.90;99.90;;;;;;5007791;28;19909;-78
2022/02/23 05:40:07;;;;;;;;;;;2.90;99.90;;;;;;5008728;28;20026;-79
2022/02/23 05:42:33;;;;;;;19.15;3.85;;;2.90;99.90;;;;;;5007213;28;19905;-78
2022/02/23 05:44:59;;;;;;;10.13;3.22;;;2.90;99.90;;;;;;5010269;28;20034;-79
2022/02/23 05:47:25;;;;;;;;;;;2.90;99.90;;;;;;5013960;28;20068;-78
2022/02/23 05:49:51;;;;;;;21.15;6.47;;;2.90;99.90;;;;;;5010226;28;19917;-78
2022/02/23 05:52:19;;;;;;;18.60;6.47;;;2.90;99.90;;;;;;5007472;28;20046;-78
2022/02/23 05:54:45;;;;;;;16.27;6.88;;;2.90;99.90;;;;;;5009467;28;20030;-78
2022/02/23 05:57:12;;;;;;;19.38;8.20;;;2.90;99.90;;;;;;5010467;28;20395;-79
2022/02/23 05:59:38;;;;;;;27.75;11.63;;;2.90;99.90;;;;;;5011768;28;20022;-78
2022/02/23 06:02:04;;;;;;;19.88;6.80;;;3.00;99.90;;;;;;5014501;28;20027;-78
2022/02/23 06:04:30;;;;;;;;;;;3.10;99.90;;;;;;5009652;28;20031;-77
2022/02/23 06:06:56;;;;;;;25.67;7.50;;;3.10;99.90;;;;;;5010385;28;19933;-80
2022/02/23 06:09:22;;;;;;;;;;;3.10;99.90;;;;;;5015854;28;20031;-79
2022/02/23 06:11:49;;;;;;;18.85;7.70;;;3.20;99.90;;;;;;5015851;28;19917;-79
2022/02/23 06:14:15;;;;;;;17.58;6.63;;;3.20;99.90;;;;;;5015153;28;20053;-77
2022/02/23 06:16:41;;;;;;;;;;;3.30;99.90;;;;;;5011018;28;20030;-78
2022/02/23 06:19:06;;;;;;;15.38;4.93;;;3.30;99.90;;;;;;5014658;28;19890;-78
2022/02/23 06:21:32;;;;;;;;;;;3.40;99.90;;;;;;5011659;28;20038;-80
2022/02/23 06:23:58;;;;;;;17.73;5.60;;;3.40;99.90;;;;;;5009388;28;19901;-79
2022/02/23 06:26:24;;;;;;;18.35;6.43;;;3.50;99.90;;;;;;5012438;28;20030;-78
2022/02/23 06:28:50;;;;;;;15.95;5.85;;;3.50;99.90;;;;;;5015483;28;20030;-79
2022/02/23 06:31:17;;;;;;;16.40;5.13;;;3.60;99.90;;;;;;5014947;28;20026;-78
2022/02/23 06:33:45;;;;;;;15.68;4.88;;;3.60;99.90;;;;;;5013457;28;20022;-80
2022/02/23 06:36:11;;;;;;;21.10;4.63;;;3.70;99.90;;;;;;5013193;28;20130;-79
2022/02/23 06:38:41;;;;;;;16.35;3.83;;;3.60;99.90;;;;;;5015496;28;20022;-79
2022/02/23 06:41:13;;;;;;;16.63;2.92;;;3.70;99.90;;;;;;5015523;28;20099;-80
2022/02/23 06:43:40;;;;;;;15.45;4.30;;;3.60;99.90;;;;;;5015394;28;20026;-79
2022/02/23 06:46:06;;;;;;;9.95;3.33;;;3.70;99.90;;;;;;5014202;28;20106;-79
2022/02/23 06:48:32;;;;;;;;;;;3.80;99.90;;;;;;5016892;28;20022;-80
2022/02/23 06:50:59;;;;;;;13.00;3.42;;;3.80;99.90;;;;;;5015372;28;19922;-80
2022/02/23 06:53:25;;;;;;;12.25;3.25;;;3.90;99.90;;;;;;5015043;28;20034;-78
2022/02/23 06:55:52;;;;;;;18.40;4.40;;;4.00;99.90;;;;;;5015862;28;20018;-79
2022/02/23 06:58:18;;;;;;;16.80;3.22;;;3.90;99.90;;;;;;5015400;28;20030;-80
2022/02/23 07:00:44;;;;;;;;;;;4.10;99.90;;;;;;5031081;28;20026;-79
2022/02/23 07:03:10;;;;;;;11.80;2.45;;;4.00;99.90;;;;;;5011570;28;19909;-79
2022/02/23 07:05:38;;;;;;;17.00;3.30;;;4.00;99.90;;;;;;5019838;28;20153;-80
2022/02/23 07:08:08;;;;;;;12.73;3.10;;;4.10;99.90;;;;;;5036049;28;20034;-80
2022/02/23 07:10:36;;;;;;;8.88;2.53;;;4.10;99.90;;;;;;5019278;28;20041;-80
2022/02/23 07:13:05;;;;;;;10.45;2.58;;;4.20;99.90;;;;;;5018791;28;20030;-79
2022/02/23 07:15:35;;;;;;;11.77;2.60;;;4.30;99.90;;;;;;5018933;28;20007;-80
2022/02/23 07:18:07;;;;;;;18.60;2.90;;;4.50;99.90;;;;;;5018980;28;20034;-80
2022/02/23 07:20:32;;;;;;;10.73;3.05;;;4.60;99.90;;;;;;5017152;28;20035;-80
2022/02/23 07:22:59;;;;;;;;;;;4.50;99.90;;;;;;5016188;28;20013;-79
2022/02/23 07:27:53;;;;;;;11.88;2.78;;;4.60;99.90;;;;;;5630748;23;20046;-80
2022/02/23 07:30:20;;;;;;;;;;;4.60;99.90;;;;;;5018213;28;20035;-80
2022/02/23 07:32:46;;;;;;;13.85;3.13;;;4.60;99.90;;;;;;5016729;28;19933;-81
2022/02/23 07:35:14;;;;;;;17.95;3.28;;;4.60;99.90;;;;;;5016403;28;20034;-80
2022/02/23 07:37:49;;;;;;;10.43;2.90;;;4.60;99.90;;;;;;5000222;28;20038;-80
2022/02/23 07:40:22;;;;;;;9.02;3.20;;;4.80;99.90;;;;;;5016834;28;20006;-80
2022/02/23 07:42:49;;;;;;;13.95;4.32;;;5.00;99.90;;;;;;5016303;28;20007;-79
2022/02/23 07:45:15;;;;;;;10.30;2.60;;;5.00;99.90;;;;;;5015565;28;20038;-80
2022/02/23 07:47:41;;;;;;;12.30;2.63;;;5.20;99.90;;;;;;5016370;28;20015;-80
2022/02/23 07:50:11;;;;;;;;;;;5.20;99.90;;;;;;5016357;28;20075;-80
2022/02/23 07:52:38;;;;;;;14.57;3.13;;;5.10;99.90;;;;;;5000778;28;19910;-80
2022/02/23 07:55:06;;;;;;;9.45;3.25;;;5.10;99.90;;;;;;5016861;28;20019;-78
2022/02/23 07:57:31;;;;;;;16.63;2.92;;;5.10;99.90;;;;;;5014556;28;20034;-80
2022/02/23 07:59:57;;;;;;;;;;;5.10;99.90;;;;;;5008412;28;20015;-79
2022/02/23 08:02:23;;;;;;;7.97;3.15;;;5.10;99.90;;;;;;5010453;28;19890;-79
2022/02/23 08:04:52;;;;;;;9.30;2.75;;;5.10;99.90;;;;;;5009123;28;20037;-79
2022/02/23 08:07:21;;;;;;;16.08;3.50;;;5.20;99.90;;;;;;5013429;28;20053;-79
2022/02/23 08:09:48;;;;;;;10.10;3.13;;;5.30;99.90;;;;;;5008414;28;20058;-81
2022/02/23 08:12:14;;;;;;;6.95;2.83;;;5.30;99.90;;;;;;5004264;28;20026;-77
2022/02/23 08:14:41;;;;;;;15.73;3.35;;;5.30;99.90;;;;;;5005970;28;20056;-79
2022/02/23 08:20:03;;;;;;;11.57;3.70;;;5.40;99.90;;;;;;5010125;28;19920;-79
2022/02/23 08:22:31;;;;;;;12.38;3.88;;;5.40;99.90;;;;;;5005495;28;20029;-77
2022/02/23 08:25:07;;;;;;;13.40;3.90;;;5.40;99.90;;;;;;5010750;28;20074;-82
2022/02/23 08:27:35;;;;;;;10.93;2.97;;;5.40;99.90;;;;;;5004988;28;20050;-79
2022/02/23 08:30:13;;;;;;;8.10;2.90;;;5.50;99.90;;;;;;5005735;28;20033;-78
2022/02/23 08:32:48;;;;;;;8.90;2.80;;;5.50;99.90;;;;;;5007194;28;20030;-79
2022/02/23 08:35:16;;;;;;;11.65;3.40;;;5.60;99.90;;;;;;5008698;28;20026;-80
2022/02/23 08:37:46;;;;;;;11.45;2.92;;;5.60;99.90;;;;;;5007892;28;20030;-79
2022/02/23 08:40:13;;;;;;;;;;;5.60;99.90;;;;;;5007575;28;20030;-80
2022/02/23 08:42:41;;;;;;;12.85;2.55;;;5.70;99.90;;;;;;5009623;28;19949;-79
2022/02/23 08:45:21;;;;;;;6.72;2.40;;;5.60;99.90;;;;;;5012368;28;20081;-81
2022/02/23 08:47:48;;;;;;;11.32;2.60;;;5.60;99.90;;;;;;5012762;28;20027;-81
2022/02/23 08:50:13;;;;;;;6.43;2.10;;;5.70;99.90;;;;;;5012644;28;20052;-81
2022/02/23 08:52:39;;;;;;;;;;;5.70;99.90;;;;;;5012917;28;20027;-79
2022/02/23 08:55:07;;;;;;;6.07;2.05;;;5.70;99.90;;;;;;5003767;28;19929;-80
2022/02/23 08:57:41;;;;;;;7.32;2.50;;;5.70;99.90;;;;;;5010642;28;20046;-80
2022/02/23 09:00:08;;;;;;;10.68;2.53;;;5.70;99.90;;;;;;5014256;28;20169;-81
2022/02/23 09:02:34;;;;;;;10.10;2.40;;;5.70;99.90;;;;;;5031399;28;20022;-80
2022/02/23 09:05:01;;;;;;;9.50;2.45;;;5.80;99.90;;;;;;5015358;28;20031;-81
2022/02/23 09:07:27;;;;;;;6.28;2.08;;;5.90;99.90;;;;;;5015713;28;20034;-79
2022/02/23 09:09:53;;;;;;;11.68;2.60;;;5.90;99.90;;;;;;4995625;28;20045;-79
2022/02/23 09:12:19;;;;;;;7.65;2.28;;;6.30;99.90;;;;;;5011326;28;20396;-79
2022/02/23 09:14:45;;;;;;;9.38;1.92;;;7.10;99.90;;;;;;5015286;28;20049;-78
2022/02/23 09:17:11;;;;;;;;;;;8.00;99.90;;;;;;5019001;28;20006;-79
2022/02/23 09:19:37;;;;;;;8.38;1.77;;;8.40;99.90;;;;;;5017498;28;19910;-79
2022/02/23 09:22:03;;;;;;;;;;;8.60;99.90;;;;;;5017004;28;20030;-79
2022/02/23 09:24:29;;;;;;;8.32;2.33;;;8.80;99.90;;;;;;5018155;28;19918;-80
2022/02/23 09:26:56;;;;;;;;;;;8.70;99.90;;;;;;5015961;28;20034;-79
2022/02/23 09:29:22;;;;;;;6.35;1.80;;;8.30;99.90;;;;;;5014119;28;19909;-79
2022/02/23 09:31:47;;;;;;;;;;;8.10;99.90;;;;;;5015373;28;20035;-80
2022/02/23 09:34:13;;;;;;;6.95;1.88;;;7.90;99.90;;;;;;5013716;28;19910;-80
2022/02/23 09:36:41;;;;;;;;;;;7.90;99.90;;;;;;5015907;28;20027;-80
2022/02/23 09:39:08;;;;;;;7.80;1.90;;;8.00;99.90;;;;;;5016582;28;19961;-80
2022/02/23 09:41:35;;;;;;;6.80;1.80;;;8.20;99.90;;;;;;5019345;28;20030;-79
2022/02/23 09:44:01;;;;;;;5.45;2.10;;;8.60;99.90;;;;;;5016557;28;20014;-79
2022/02/23 09:46:28;;;;;;;9.35;2.28;;;9.00;99.90;;;;;;5016741;28;20038;-79
2022/02/23 09:48:54;;;;;;;8.00;2.53;;;9.10;99.90;;;;;;5018200;28;20091;-79
2022/02/23 09:51:21;;;;;;;8.32;2.00;;;9.50;99.90;;;;;;5015930;28;20057;-79
2022/02/23 09:53:47;;;;;;;7.65;2.13;;;9.70;99.90;;;;;;5007307;28;20034;-78
2022/02/23 09:56:15;;;;;;;4.90;1.40;;;10.00;99.90;;;;;;5013263;28;20031;-79
2022/02/23 09:58:42;;;;;;;5.50;1.35;;;10.60;99.90;;;;;;5011557;28;20030;-78
2022/02/23 10:01:08;;;;;;;3.45;1.25;;;11.40;99.90;;;;;;5003789;28;20022;-78
2022/02/23 10:03:35;;;;;;;4.40;1.30;;;11.70;99.80;;;;;;5004981;28;20030;-79
2022/02/23 10:06:01;;;;;;;5.47;1.60;;;11.60;98.80;;;;;;5009533;28;20040;-78
2022/02/23 10:08:35;;;;;;;5.57;1.20;;;11.40;98.40;;;;;;5012612;28;20038;-78
2022/02/23 10:11:01;;;;;;;3.88;0.95;;;11.10;99.90;;;;;;5008405;28;20026;-79
2022/02/23 10:13:27;;;;;;;4.53;1.10;;;10.90;99.90;;;;;;5011406;28;20053;-78
2022/02/23 10:15:54;;;;;;;5.80;1.17;;;11.40;99.90;;;;;;5013126;28;20022;-79
2022/02/23 10:18:19;;;;;;;4.22;1.33;;;12.20;98.30;;;;;;5016489;28;20038;-79
2022/02/23 10:20:46;;;;;;;;;;;12.70;89.60;;;;;;5019902;28;20031;-79
2022/02/23 10:23:20;;;;;;;3.75;1.27;;;12.70;80.60;;;;;;5019066;28;19921;-79
2022/02/23 10:26:12;;;;;;;9.95;1.20;;;12.20;82.80;;;;;;5019432;28;20041;-79
2022/02/23 10:28:38;;;;;;;4.45;1.25;;;11.70;90.10;;;;;;5014044;28;20058;-78
2022/02/23 10:31:15;;;;;;;3.25;1.20;;;11.60;91.00;;;;;;5011441;28;20027;-79
2022/02/23 10:33:43;;;;;;;6.57;1.60;;;11.50;90.00;;;;;;5008663;28;20037;-79
2022/02/23 10:36:11;;;;;;;6.22;1.35;;;11.50;91.10;;;;;;5014322;28;20023;-79
2022/02/23 10:38:50;;;;;;;3.35;1.05;;;11.50;91.60;;;;;;5015570;28;20029;-80
2022/02/23 10:41:30;;;;;;;5.65;1.40;;;11.30;93.00;;;;;;5013877;28;20054;-79
2022/02/23 10:43:56;;;;;;;4.47;1.20;;;11.20;93.80;;;;;;5010927;28;20050;-80
2022/02/23 10:46:23;;;;;;;3.80;1.17;;;11.20;91.50;;;;;;5008709;28;20050;-79
2022/02/23 10:48:53;;;;;;;4.93;1.23;;;11.00;92.40;;;;;;5009910;28;20475;-79
2022/02/23 10:51:32;;;;;;;5.10;1.17;;;10.90;90.50;;;;;;5012075;28;20484;-79
2022/02/23 10:54:06;;;;;;;4.15;1.10;;;10.60;92.30;;;;;;5011112;28;20022;-79
2022/02/23 10:56:36;;;;;;;2.67;1.50;;;10.50;90.90;;;;;;5014130;28;20086;-78
2022/02/23 10:59:07;;;;;;;6.00;2.25;;;10.30;92.60;;;;;;5013917;28;20152;-79
2022/02/23 11:01:35;;;;;;;5.30;2.20;;;10.10;93.90;;;;;;5011499;28;20057;-78
2022/02/23 11:04:01;;;;;;;5.60;1.70;;;9.90;93.70;;;;;;5015318;28;20085;-80
2022/02/23 11:06:27;;;;;;;;;;;9.70;94.70;;;;;;5017782;28;20026;-80
2022/02/23 11:08:54;;;;;;;8.00;2.53;;;9.60;97.50;;;;;;5014820;28;19929;-79
2022/02/23 11:11:21;;;;;;;3.72;1.17;;;9.60;96.80;;;;;;5016950;28;20034;-80
2022/02/23 11:13:50;;;;;;;4.95;1.45;;;9.60;93.40;;;;;;4995133;28;20026;-77
2022/02/23 11:16:17;;;;;;;5.05;1.83;;;9.70;94.20;;;;;;4994428;28;20054;-79
2022/02/23 11:18:46;;;;;;;6.10;1.95;;;9.80;92.80;;;;;;4994616;28;20030;-77
2022/02/23 11:21:14;;;;;;;6.47;1.48;;;9.70;94.30;;;;;;4992780;28;20041;-78
2022/02/23 11:23:41;;;;;;;5.25;1.48;;;9.80;92.60;;;;;;5014151;28;20410;-77
2022/02/23 11:26:12;;;;;;;5.15;1.70;;;9.80;92.70;;;;;;4996722;28;20610;-78
2022/02/23 11:28:56;;;;;;;5.03;1.52;;;9.90;91.50;;;;;;5003868;28;20057;-78
2022/02/23 11:31:22;;;;;;;6.13;1.35;;;10.00;85.00;;;;;;5001074;28;20057;-78
2022/02/23 11:33:50;;;;;;;3.08;1.10;;;10.10;84.20;;;;;;5003367;28;20095;-78
2022/02/23 11:36:31;;;;;;;4.40;0.70;;;10.20;85.30;;;;;;5001241;28;20089;-77
2022/02/23 11:39:00;;;;;;;3.17;0.95;;;10.20;76.40;;;;;;4999253;28;20037;-77
2022/02/23 11:41:31;;;;;;;3.63;0.98;;;10.30;75.80;;;;;;4992659;28;20042;-77
2022/02/23 11:44:16;;;;;;;2.72;0.85;;;10.20;76.40;;;;;;4999557;28;20403;-78
2022/02/23 11:47:08;;;;;;;2.60;1.00;;;10.30;72.80;;;;;;5022501;28;20060;-79
2022/02/23 11:49:34;;;;;;;3.40;0.73;;;10.20;74.50;;;;;;4996459;28;20048;-78
2022/02/23 11:52:07;;;;;;;;;;;10.30;68.00;;;;;;5001372;28;20550;-78
2022/02/23 11:55:03;;;;;;;3.05;0.73;;;10.50;66.20;;;;;;4999507;28;19933;-78
2022/02/23 11:57:50;;;;;;;4.18;0.93;;;10.50;65.10;;;;;;5010409;28;20034;-79
2022/02/23 12:00:28;;;;;;;3.47;0.70;;;10.60;62.60;;;;;;5009995;28;20053;-79
2022/02/23 12:02:56;;;;;;;2.47;0.70;;;10.60;62.00;;;;;;5007172;28;20026;-80
2022/02/23 12:05:48;;;;;;;2.95;0.60;;;10.50;60.80;;;;;;4999320;28;20065;-78
2022/02/23 12:08:32;;;;;;;5.75;1.20;;;10.60;58.40;;;;;;5011908;28;20399;-80
2022/02/23 12:11:15;;;;;;;6.85;0.75;;;10.50;56.50;;;;;;5017663;28;20034;-81
2022/02/23 12:13:55;;;;;;;7.40;0.98;;;10.70;56.00;;;;;;5011956;28;20027;-79
2022/02/23 12:16:23;;;;;;;5.40;1.60;;;10.70;55.80;;;;;;5013758;28;20094;-79
2022/02/23 12:18:51;;;;;;;3.05;0.63;;;10.70;56.50;;;;;;5014644;28;20040;-79
2022/02/23 12:21:17;;;;;;;3.33;0.75;;;10.80;55.10;;;;;;5013870;28;20023;-79
2022/02/23 12:23:44;;;;;;;;;;;10.90;53.90;;;;;;5015257;28;20041;-79
2022/02/23 12:26:11;;;;;;;2.50;0.80;;;11.00;50.30;;;;;;5012877;28;19961;-79
2022/02/23 12:28:40;;;;;;;2.22;0.50;;;10.80;50.10;;;;;;5014439;28;20054;-78
2022/02/23 12:31:20;;;;;;;4.57;0.93;;;11.00;48.00;;;;;;5011340;28;20014;-79
2022/02/23 12:34:10;;;;;;;4.90;0.50;;;11.00;46.70;;;;;;5017400;28;20482;-79
2022/02/23 12:36:37;;;;;;;3.67;0.55;;;11.10;45.90;;;;;;5013527;28;20026;-77
2022/02/23 12:39:07;;;;;;;3.63;1.00;;;11.10;45.00;;;;;;5017244;28;20026;-79
2022/02/23 12:41:34;;;;;;;3.42;0.65;;;11.00;45.30;;;;;;5017587;28;20073;-78
2022/02/23 12:44:04;;;;;;;2.28;0.57;;;10.90;45.20;;;;;;5018971;28;20069;-78
2022/02/23 12:46:33;;;;;;;2.38;0.60;;;10.80;45.60;;;;;;5018666;28;20017;-79
2022/02/23 12:49:00;;;;;;;3.83;0.98;;;10.90;45.90;;;;;;5018960;28;20018;-78
2022/02/23 12:51:29;;;;;;;4.55;1.38;;;10.90;45.70;;;;;;5018404;28;20037;-78
2022/02/23 12:53:58;;;;;;;6.22;0.82;;;11.00;45.20;;;;;;5017082;28;20010;-79
2022/02/23 12:56:30;;;;;;;3.47;0.80;;;11.00;44.50;;;;;;5018361;28;20027;-78
2022/02/23 12:59:05;;;;;;;5.43;0.90;;;11.10;45.20;;;;;;5018969;28;20067;-79
2022/02/23 13:01:54;;;;;;;6.35;0.80;;;11.10;45.00;;;;;;5018807;28;20038;-79
2022/02/23 13:04:27;;;;;;;3.72;1.20;;;11.20;44.10;;;;;;5017960;28;20049;-80
2022/02/23 13:06:57;;;;;;;5.18;0.90;;;11.20;44.50;;;;;;5020080;28;20057;-78
2022/02/23 13:09:26;;;;;;;4.90;0.80;;;11.10;43.80;;;;;;5019420;28;20026;-78
2022/02/23 13:11:54;;;;;;;3.15;0.70;;;11.20;44.10;;;;;;5019028;28;20045;-79
2022/02/23 13:14:22;;;;;;;6.35;1.00;;;11.10;44.50;;;;;;5017977;28;20027;-79
2022/02/23 13:16:59;;;;;;;7.88;1.05;;;11.40;46.10;;;;;;5020380;28;20015;-80
2022/02/23 13:19:29;;;;;;;;;;;11.60;46.00;;;;;;5018938;28;20110;-79